Time;durP1;ratioP1;P1;durP2;ratioP2;P2;SDS_P1;SDS_P2;PMS_P1;PMS_P2;Temp;Humidity;BMP_temperature;BMP_pressure;BME280_temperature;BME280_humidity;BME280_pressure;Samples;Min_cycle;Max_cycle;Signal;HPM_P1;HPM_P2
2023/12/12 00:00:27;;;;;;;8.60;2.80;;;3.40;99.90;;;;;;4989456;28;20073;-75
2023/12/12 00:02:53;;;;;;;6.20;2.60;;;3.40;99.90;;;;;;5007289;28;20398;-76
2023/12/12 00:05:19;;;;;;;11.82;3.17;;;3.30;99.90;;;;;;5006771;28;20049;-76
2023/12/12 00:07:44;;;;;;;7.82;3.25;;;3.40;99.90;;;;;;5009663;28;20053;-76
2023/12/12 00:10:10;;;;;;;3.72;2.55;;;3.30;99.90;;;;;;5021314;28;20676;-75
2023/12/12 00:12:36;;;;;;;10.15;3.17;;;3.30;99.90;;;;;;4994169;28;20148;-76
2023/12/12 00:15:01;;;;;;;11.80;3.38;;;3.30;99.90;;;;;;4997992;28;20038;-76
2023/12/12 00:17:27;;;;;;;13.00;3.58;;;3.30;99.90;;;;;;4999530;28;20066;-76
2023/12/12 00:19:53;;;;;;;9.43;3.17;;;3.40;99.90;;;;;;5001809;28;20030;-76
2023/12/12 00:22:18;;;;;;;12.15;3.53;;;3.30;99.90;;;;;;4996279;28;20042;-76
2023/12/12 00:24:44;;;;;;;11.43;3.65;;;3.30;99.90;;;;;;5002341;28;20030;-76
2023/12/12 00:27:10;;;;;;;6.00;3.00;;;3.30;99.90;;;;;;4995470;28;20038;-76
2023/12/12 00:29:35;;;;;;;8.68;3.35;;;3.30;99.90;;;;;;5022277;28;20060;-76
2023/12/12 00:32:02;;;;;;;8.18;2.97;;;3.20;99.90;;;;;;4994756;28;20518;-76
2023/12/12 00:34:28;;;;;;;8.43;3.35;;;3.20;99.90;;;;;;5011036;28;20038;-76
2023/12/12 00:36:54;;;;;;;9.02;3.97;;;3.20;99.90;;;;;;4998327;28;20741;-76
2023/12/12 00:39:19;;;;;;;3.97;2.88;;;3.20;99.90;;;;;;4989653;28;20073;-75
2023/12/12 00:41:45;;;;;;;6.43;3.30;;;3.40;99.90;;;;;;4996713;28;20037;-75
2023/12/12 00:44:11;;;;;;;8.13;3.70;;;3.40;99.90;;;;;;4980410;28;20083;-76
2023/12/12 00:46:36;;;;;;;8.82;3.63;;;3.20;99.90;;;;;;5009407;28;20061;-76
2023/12/12 00:49:02;;;;;;;7.50;3.33;;;3.80;99.90;;;;;;5028362;28;20041;-75
2023/12/12 00:51:28;;;;;;;6.95;3.13;;;3.20;99.90;;;;;;4993368;28;20376;-75
2023/12/12 00:53:53;;;;;;;7.25;3.13;;;3.20;99.90;;;;;;5025626;28;20057;-76
2023/12/12 00:56:19;;;;;;;9.60;3.28;;;3.10;99.90;;;;;;5027488;28;20136;-76
2023/12/12 00:58:45;;;;;;;10.07;3.60;;;3.10;99.90;;;;;;5012137;28;20064;-76
2023/12/12 01:01:13;;;;;;;6.20;3.53;;;3.10;99.90;;;;;;5009611;28;20038;-76
2023/12/12 01:03:39;;;;;;;8.77;3.28;;;3.10;99.90;;;;;;5012986;28;20044;-76
2023/12/12 01:06:05;;;;;;;8.38;3.17;;;3.20;99.90;;;;;;4988908;28;20495;-76
2023/12/12 01:08:31;;;;;;;6.55;3.95;;;3.10;99.90;;;;;;5004401;28;20045;-76
2023/12/12 01:10:57;;;;;;;5.90;3.15;;;3.10;99.90;;;;;;4992235;28;20045;-76
2023/12/12 01:13:22;;;;;;;10.70;3.50;;;3.50;99.90;;;;;;5013083;28;20046;-76
2023/12/12 01:15:48;;;;;;;10.38;3.88;;;3.10;99.90;;;;;;4998759;28;20095;-76
2023/12/12 01:18:13;;;;;;;14.32;3.67;;;3.10;99.90;;;;;;4986859;28;20479;-76
2023/12/12 01:20:39;;;;;;;9.13;4.07;;;3.10;99.90;;;;;;5009702;28;20199;-76
2023/12/12 01:23:05;;;;;;;12.70;4.07;;;3.10;99.90;;;;;;5021772;28;20065;-76
2023/12/12 01:25:31;;;;;;;13.02;3.72;;;3.10;99.90;;;;;;4994752;28;20037;-76
2023/12/12 01:27:57;;;;;;;13.13;4.57;;;3.30;99.90;;;;;;5003076;28;20495;-76
2023/12/12 01:30:22;;;;;;;10.10;4.28;;;3.10;99.90;;;;;;5009647;28;20045;-76
2023/12/12 01:32:48;;;;;;;8.98;3.60;;;3.40;99.90;;;;;;4986134;28;20038;-75
2023/12/12 01:35:14;;;;;;;12.02;4.35;;;3.20;99.90;;;;;;4979444;28;20409;-75
2023/12/12 01:37:40;;;;;;;8.90;3.90;;;3.10;99.90;;;;;;5018520;28;20407;-76
2023/12/12 01:40:08;;;;;;;11.63;4.20;;;3.50;99.90;;;;;;4985579;28;20038;-76
2023/12/12 01:42:33;;;;;;;6.72;3.97;;;3.00;99.90;;;;;;5027052;28;20494;-76
2023/12/12 01:44:59;;;;;;;8.80;4.85;;;3.00;99.90;;;;;;4989971;28;20040;-75
2023/12/12 01:47:26;;;;;;;9.82;4.03;;;3.00;99.90;;;;;;5020839;28;20468;-75
2023/12/12 01:49:52;;;;;;;9.05;4.30;;;3.00;99.90;;;;;;5013564;28;20034;-75
2023/12/12 01:52:20;;;;;;;13.57;4.40;;;3.00;99.90;;;;;;5020867;28;20038;-75
2023/12/12 01:54:47;;;;;;;7.68;4.25;;;2.90;99.90;;;;;;5000495;28;20061;-75
2023/12/12 01:57:17;;;;;;;7.88;3.85;;;3.00;99.90;;;;;;5005476;28;20038;-75
2023/12/12 01:59:45;;;;;;;9.48;4.35;;;2.90;99.90;;;;;;5014329;28;20120;-75
2023/12/12 02:02:11;;;;;;;10.60;4.28;;;3.20;99.90;;;;;;5001440;28;20095;-75
2023/12/12 02:04:38;;;;;;;14.75;5.40;;;2.90;99.90;;;;;;5022589;28;20038;-75
2023/12/12 02:07:04;;;;;;;9.52;4.30;;;2.90;99.90;;;;;;5004278;28;20041;-76
2023/12/12 02:09:30;;;;;;;11.00;5.15;;;3.10;99.90;;;;;;5002153;28;20038;-76
2023/12/12 02:11:57;;;;;;;14.23;4.57;;;2.90;99.90;;;;;;4986471;28;20546;-75
2023/12/12 02:14:23;;;;;;;8.75;4.35;;;3.00;99.90;;;;;;4995469;28;20037;-76
2023/12/12 02:16:49;;;;;;;11.70;4.53;;;2.90;99.90;;;;;;5017704;28;20184;-76
2023/12/12 02:19:16;;;;;;;12.98;5.32;;;2.90;99.90;;;;;;5020205;28;20147;-76
2023/12/12 02:21:42;;;;;;;9.32;5.57;;;3.00;99.90;;;;;;5009916;28;20118;-75
2023/12/12 02:24:07;;;;;;;14.23;5.28;;;2.90;99.90;;;;;;5007666;28;20065;-75
2023/12/12 02:26:33;;;;;;;24.42;6.75;;;2.90;99.90;;;;;;5009162;28;20517;-75
2023/12/12 02:28:59;;;;;;;11.00;5.22;;;3.00;99.90;;;;;;4987321;28;20057;-75
2023/12/12 02:31:25;;;;;;;10.20;4.93;;;2.90;99.90;;;;;;5004127;28;20091;-75
2023/12/12 02:33:51;;;;;;;7.25;4.80;;;2.90;99.90;;;;;;5019251;28;20044;-75
2023/12/12 02:36:16;;;;;;;12.30;4.95;;;3.10;99.90;;;;;;4995559;28;20042;-75
2023/12/12 02:38:42;;;;;;;10.90;5.18;;;2.90;99.90;;;;;;5027960;28;20519;-75
2023/12/12 02:41:08;;;;;;;17.50;5.57;;;3.00;99.90;;;;;;5013259;28;20034;-75
2023/12/12 02:43:36;;;;;;;12.80;5.70;;;2.90;99.90;;;;;;4969058;28;20034;-76
2023/12/12 02:46:01;;;;;;;13.43;5.82;;;3.00;99.90;;;;;;5008663;28;20622;-76
2023/12/12 02:48:27;;;;;;;13.95;5.78;;;3.00;99.90;;;;;;4996122;28;20038;-76
2023/12/12 02:50:53;;;;;;;14.80;5.18;;;2.90;99.90;;;;;;5008977;28;20095;-76
2023/12/12 02:53:18;;;;;;;12.88;4.75;;;3.70;99.90;;;;;;5000149;28;20041;-76
2023/12/12 02:55:44;;;;;;;20.40;6.28;;;3.00;99.90;;;;;;4998519;28;20042;-76
2023/12/12 02:58:10;;;;;;;15.30;6.18;;;3.00;99.90;;;;;;4997068;28;20033;-75
2023/12/12 03:00:36;;;;;;;18.67;5.90;;;3.10;99.90;;;;;;4989679;28;20280;-76
2023/12/12 03:03:01;;;;;;;13.02;5.45;;;3.10;99.90;;;;;;4995650;28;20084;-76
2023/12/12 03:05:27;;;;;;;11.18;5.35;;;3.10;99.90;;;;;;4971286;28;20037;-76
2023/12/12 03:07:53;;;;;;;12.25;5.65;;;3.20;99.90;;;;;;4991053;28;20060;-76
2023/12/12 03:10:18;;;;;;;11.00;5.45;;;3.10;99.90;;;;;;4985910;28;20046;-76
2023/12/12 03:12:44;;;;;;;10.15;5.32;;;3.10;99.90;;;;;;4990004;28;20049;-75
2023/12/12 03:15:11;;;;;;;14.90;6.20;;;3.10;99.90;;;;;;4998783;28;20085;-76
2023/12/12 03:17:36;;;;;;;12.02;6.13;;;3.10;99.90;;;;;;5015816;28;20091;-76
2023/12/12 03:20:02;;;;;;;11.45;5.43;;;3.30;99.90;;;;;;5022977;28;20037;-76
2023/12/12 03:22:28;;;;;;;18.88;6.20;;;3.10;99.90;;;;;;5023847;28;20112;-76
2023/12/12 03:24:53;;;;;;;12.65;6.07;;;3.10;99.90;;;;;;5008413;28;20036;-76
2023/12/12 03:27:19;;;;;;;19.48;6.35;;;3.10;99.90;;;;;;5001995;28;20042;-76
2023/12/12 03:29:45;;;;;;;15.98;6.15;;;3.20;99.90;;;;;;4999986;28;20406;-76
2023/12/12 03:32:10;;;;;;;14.75;6.82;;;3.40;99.90;;;;;;5017350;28;20483;-76
2023/12/12 03:34:36;;;;;;;16.92;7.38;;;3.10;99.90;;;;;;5023077;28;20072;-76
2023/12/12 03:37:02;;;;;;;18.90;6.95;;;3.20;99.90;;;;;;4993127;28;20045;-76
2023/12/12 03:39:28;;;;;;;16.70;6.75;;;3.20;99.90;;;;;;5002701;28;20121;-76
2023/12/12 03:41:54;;;;;;;22.90;7.13;;;3.30;99.90;;;;;;5007905;28;20056;-76
2023/12/12 03:44:19;;;;;;;16.70;6.38;;;3.40;99.90;;;;;;4984148;28;20507;-75
2023/12/12 03:46:45;;;;;;;20.08;6.88;;;3.10;99.90;;;;;;4988564;28;20045;-75
2023/12/12 03:49:11;;;;;;;22.55;6.40;;;3.10;99.90;;;;;;4994832;28;20494;-76
2023/12/12 03:51:36;;;;;;;17.38;6.72;;;3.20;99.90;;;;;;5004312;28;20114;-76
2023/12/12 03:54:02;;;;;;;19.48;7.38;;;3.20;99.90;;;;;;5015747;28;20677;-76
2023/12/12 03:56:28;;;;;;;27.65;8.48;;;3.20;99.90;;;;;;5022066;28;20045;-76
2023/12/12 03:58:53;;;;;;;23.70;7.65;;;3.30;99.90;;;;;;4991662;28;20395;-76
2023/12/12 04:01:19;;;;;;;22.17;7.75;;;3.30;99.90;;;;;;4997526;28;20144;-76
2023/12/12 04:03:45;;;;;;;24.00;7.72;;;3.20;99.90;;;;;;5004609;28;20115;-76
2023/12/12 04:06:10;;;;;;;21.33;8.80;;;3.60;99.90;;;;;;5010670;28;20038;-76
2023/12/12 04:08:36;;;;;;;22.25;7.47;;;3.50;99.90;;;;;;4990696;28;20038;-76
2023/12/12 04:11:02;;;;;;;30.13;8.32;;;3.80;99.90;;;;;;4985627;28;20042;-76
2023/12/12 04:13:28;;;;;;;21.42;8.13;;;3.60;99.90;;;;;;4981987;28;20041;-76
2023/12/12 04:15:53;;;;;;;29.02;8.82;;;3.70;99.90;;;;;;5000385;28;20041;-76
2023/12/12 04:18:19;;;;;;;25.58;8.45;;;3.60;99.90;;;;;;5018527;28;20053;-76
2023/12/12 04:20:44;;;;;;;31.13;9.45;;;3.70;99.90;;;;;;4987252;28;20062;-76
2023/12/12 04:23:10;;;;;;;21.75;8.20;;;3.60;99.90;;;;;;5003551;28;20060;-77
2023/12/12 04:25:36;;;;;;;27.98;9.80;;;3.60;99.90;;;;;;5011039;28;20292;-76
2023/12/12 04:28:02;;;;;;;30.70;9.93;;;3.70;99.90;;;;;;4990073;28;20037;-76
2023/12/12 04:30:28;;;;;;;24.98;9.27;;;3.60;99.90;;;;;;5017579;28;20041;-76
2023/12/12 04:32:53;;;;;;;30.52;9.77;;;3.70;99.90;;;;;;5008479;28;20070;-76
2023/12/12 04:35:19;;;;;;;36.90;10.38;;;4.00;99.90;;;;;;5022883;28;20041;-76
2023/12/12 04:37:46;;;;;;;30.50;10.13;;;3.80;99.90;;;;;;5008621;28;20049;-76
2023/12/12 04:40:12;;;;;;;29.48;9.60;;;3.80;99.90;;;;;;5002296;28;20038;-76
2023/12/12 04:42:38;;;;;;;29.80;11.13;;;3.70;99.90;;;;;;5006498;28;20133;-76
2023/12/12 04:45:05;;;;;;;26.60;10.15;;;3.80;99.90;;;;;;5018267;28;20535;-76
2023/12/12 04:47:31;;;;;;;26.73;10.25;;;3.70;99.90;;;;;;5001804;28;20061;-76
2023/12/12 04:49:56;;;;;;;26.67;10.27;;;3.70;99.90;;;;;;5002542;28;20080;-76
2023/12/12 04:52:22;;;;;;;30.23;11.23;;;4.00;99.90;;;;;;5010613;28;20092;-76
2023/12/12 04:54:48;;;;;;;31.45;10.05;;;3.70;99.90;;;;;;5005330;28;20574;-76
2023/12/12 04:57:13;;;;;;;29.80;10.35;;;3.70;99.90;;;;;;5029325;28;20049;-76
2023/12/12 04:59:39;;;;;;;37.08;11.02;;;3.80;99.90;;;;;;5028014;28;20048;-76
2023/12/12 05:02:05;;;;;;;26.20;10.15;;;3.80;99.90;;;;;;5022360;28;20030;-76
2023/12/12 05:04:30;;;;;;;27.33;10.25;;;3.80;99.90;;;;;;5020893;28;20053;-76
2023/12/12 05:06:56;;;;;;;30.08;10.65;;;4.00;99.90;;;;;;4996646;28;20111;-76
2023/12/12 05:09:21;;;;;;;34.05;10.75;;;4.00;99.90;;;;;;5000854;28;20041;-76
2023/12/12 05:11:48;;;;;;;31.77;11.15;;;3.90;99.90;;;;;;4997162;28;20503;-76
2023/12/12 05:14:14;;;;;;;39.42;11.27;;;3.90;99.90;;;;;;5020147;28;20041;-76
2023/12/12 05:16:40;;;;;;;34.97;11.60;;;4.20;99.90;;;;;;5017173;28;20674;-76
2023/12/12 05:19:05;;;;;;;34.78;12.07;;;4.00;99.90;;;;;;5021573;28;20038;-76
2023/12/12 05:21:31;;;;;;;31.50;11.02;;;4.20;99.90;;;;;;4999239;28;20129;-76
2023/12/12 05:23:57;;;;;;;33.42;11.50;;;4.80;99.90;;;;;;4982351;28;20041;-76
2023/12/12 05:26:22;;;;;;;45.45;11.85;;;4.00;99.90;;;;;;4995988;28;20041;-75
2023/12/12 05:28:48;;;;;;;42.45;12.35;;;4.00;99.90;;;;;;5024140;28;20033;-76
2023/12/12 05:31:14;;;;;;;38.83;11.50;;;3.80;99.90;;;;;;5007410;28;20490;-76
2023/12/12 05:33:40;;;;;;;45.03;10.80;;;3.80;99.90;;;;;;5018859;28;20038;-76
2023/12/12 05:36:07;;;;;;;32.13;10.57;;;3.90;99.90;;;;;;5018617;28;20045;-76
2023/12/12 05:38:33;;;;;;;45.10;11.95;;;3.90;99.90;;;;;;5024409;28;20522;-76
2023/12/12 05:40:59;;;;;;;41.63;10.05;;;3.90;99.90;;;;;;5005553;28;20708;-76
2023/12/12 05:43:24;;;;;;;47.45;12.13;;;4.00;99.90;;;;;;5006050;28;20094;-76
2023/12/12 05:45:50;;;;;;;50.05;13.07;;;4.30;99.90;;;;;;5002365;28;20080;-76
2023/12/12 05:48:16;;;;;;;44.95;13.32;;;4.20;99.90;;;;;;5022006;28;20038;-76
2023/12/12 05:50:43;;;;;;;43.10;13.38;;;4.20;99.90;;;;;;5024087;28;20483;-76
2023/12/12 05:53:08;;;;;;;62.92;17.75;;;4.30;99.90;;;;;;5002094;28;20135;-76
2023/12/12 05:55:34;;;;;;;46.35;14.52;;;4.40;99.90;;;;;;4994665;28;20081;-76
2023/12/12 05:58:00;;;;;;;50.17;14.98;;;4.40;99.90;;;;;;4972425;28;20094;-76
2023/12/12 06:00:29;;;;;;;75.18;17.38;;;4.50;99.90;;;;;;4988860;28;20040;-76
2023/12/12 06:02:55;;;;;;;74.45;15.88;;;4.50;99.90;;;;;;5001453;28;20029;-76
2023/12/12 06:05:21;;;;;;;72.80;17.27;;;4.60;99.90;;;;;;4993384;28;20056;-76
2023/12/12 06:07:46;;;;;;;62.20;16.45;;;5.00;99.90;;;;;;5027625;28;20034;-76
2023/12/12 06:10:12;;;;;;;63.90;18.10;;;4.70;99.90;;;;;;5021922;28;20052;-76
2023/12/12 06:12:38;;;;;;;70.78;19.35;;;4.70;99.90;;;;;;5009026;28;20045;-76
2023/12/12 06:15:08;;;;;;;65.00;18.13;;;4.70;99.90;;;;;;4999801;28;20063;-76
2023/12/12 06:17:38;;;;;;;75.65;18.85;;;4.80;99.90;;;;;;4988650;28;20045;-76
2023/12/12 06:20:04;;;;;;;76.28;18.10;;;4.80;99.90;;;;;;5006168;28;20573;-76
2023/12/12 06:22:30;;;;;;;57.67;16.95;;;4.90;99.90;;;;;;4989463;28;20033;-76
2023/12/12 06:24:56;;;;;;;93.30;23.00;;;5.10;99.90;;;;;;5023595;28;20066;-76
2023/12/12 06:27:22;;;;;;;85.82;21.10;;;5.00;99.90;;;;;;5020493;28;20127;-76
2023/12/12 06:29:49;;;;;;;80.10;21.08;;;5.00;99.90;;;;;;4998729;28;20411;-76
2023/12/12 06:32:15;;;;;;;83.40;21.20;;;5.10;99.90;;;;;;5006336;28;20042;-76
2023/12/12 06:34:43;;;;;;;89.60;21.55;;;5.10;99.90;;;;;;5012927;28;20534;-76
2023/12/12 06:37:09;;;;;;;67.68;20.40;;;5.00;99.90;;;;;;5010191;28;20045;-76
2023/12/12 06:39:35;;;;;;;81.60;21.10;;;5.20;99.90;;;;;;5027097;28;20033;-76
2023/12/12 06:42:00;;;;;;;93.35;21.45;;;5.10;99.90;;;;;;4993370;28;20085;-77
2023/12/12 06:44:26;;;;;;;88.63;22.27;;;5.20;99.90;;;;;;5010410;28;20042;-76
2023/12/12 06:46:52;;;;;;;114.10;26.85;;;5.20;99.90;;;;;;5009275;28;20116;-76
2023/12/12 06:49:17;;;;;;;94.28;23.02;;;5.30;99.90;;;;;;5008036;28;20460;-75
2023/12/12 06:51:43;;;;;;;98.90;25.05;;;5.20;99.90;;;;;;4994765;28;20045;-75
2023/12/12 06:54:08;;;;;;;89.47;23.58;;;5.30;99.90;;;;;;5012123;28;20128;-75
2023/12/12 06:56:34;;;;;;;82.63;23.65;;;5.30;99.90;;;;;;5008472;28;20093;-75
2023/12/12 06:59:00;;;;;;;86.20;22.30;;;5.30;99.90;;;;;;5027376;28;20510;-76
2023/12/12 07:01:25;;;;;;;83.40;23.08;;;5.30;99.90;;;;;;4996617;28;20678;-75
2023/12/12 07:03:51;;;;;;;74.80;22.02;;;5.30;99.90;;;;;;5020445;28;20121;-76
2023/12/12 07:06:18;;;;;;;98.68;23.20;;;5.30;99.90;;;;;;5008820;28;20453;-75
2023/12/12 07:08:44;;;;;;;74.07;22.02;;;5.30;99.90;;;;;;5024742;28;20113;-75
2023/12/12 07:11:11;;;;;;;81.38;23.02;;;5.30;99.90;;;;;;5006987;28;20137;-75
2023/12/12 07:13:37;;;;;;;83.32;24.08;;;5.30;99.90;;;;;;4994704;28;20187;-75
2023/12/12 07:16:04;;;;;;;98.55;26.45;;;5.40;99.90;;;;;;5020074;28;20719;-75
2023/12/12 07:18:30;;;;;;;82.57;26.10;;;5.40;99.90;;;;;;5003940;28;20091;-75
2023/12/12 07:20:58;;;;;;;94.82;24.13;;;5.40;99.90;;;;;;5011023;28;20115;-75
2023/12/12 07:23:23;;;;;;;92.43;25.80;;;5.40;99.90;;;;;;4997651;28;20049;-75
2023/12/12 07:25:49;;;;;;;89.35;24.58;;;5.40;99.90;;;;;;5029157;28;20094;-75
2023/12/12 07:28:15;;;;;;;89.25;24.40;;;5.70;99.90;;;;;;5012344;28;20560;-75
2023/12/12 07:30:42;;;;;;;87.93;24.65;;;5.40;99.90;;;;;;4991447;28;20044;-75
2023/12/12 07:33:08;;;;;;;90.22;27.13;;;5.30;99.90;;;;;;4992122;28;20052;-75
2023/12/12 07:35:34;;;;;;;99.70;26.00;;;5.30;99.90;;;;;;5011586;28;20045;-75
2023/12/12 07:38:01;;;;;;;94.18;25.00;;;5.30;99.90;;;;;;5012139;28;20045;-75
2023/12/12 07:40:27;;;;;;;80.45;24.23;;;5.30;99.90;;;;;;5028894;28;20037;-75
2023/12/12 07:42:53;;;;;;;91.95;26.10;;;5.30;99.90;;;;;;5027902;28;20099;-75
2023/12/12 07:45:18;;;;;;;80.88;23.15;;;5.20;99.90;;;;;;5012016;28;20041;-75
2023/12/12 07:47:44;;;;;;;109.97;27.25;;;5.20;99.90;;;;;;4998950;28;20042;-76
2023/12/12 07:50:10;;;;;;;88.53;23.10;;;5.50;99.90;;;;;;5032142;28;20060;-75
2023/12/12 07:52:36;;;;;;;79.15;23.95;;;5.10;99.90;;;;;;5015291;28;20402;-75
2023/12/12 07:55:01;;;;;;;76.43;23.95;;;5.20;99.90;;;;;;5016012;28;20108;-75
2023/12/12 07:57:27;;;;;;;87.65;24.38;;;5.10;99.90;;;;;;5000402;28;20120;-75
2023/12/12 07:59:53;;;;;;;58.40;17.38;;;5.10;99.90;;;;;;5015601;28;20045;-75
2023/12/12 08:02:18;;;;;;;76.68;24.38;;;5.10;99.90;;;;;;5015723;28;20042;-75
2023/12/12 08:04:44;;;;;;;91.18;25.83;;;5.10;99.90;;;;;;5032945;28;20042;-75
2023/12/12 08:07:10;;;;;;;74.93;24.15;;;5.00;99.90;;;;;;5017255;28;20045;-75
2023/12/12 08:09:36;;;;;;;73.78;25.90;;;5.30;99.90;;;;;;5017228;28;20079;-75
2023/12/12 08:12:02;;;;;;;88.18;26.25;;;5.10;99.90;;;;;;4996604;28;20034;-75
2023/12/12 08:14:28;;;;;;;78.97;23.15;;;5.10;99.90;;;;;;5033507;28;20518;-75
2023/12/12 08:16:54;;;;;;;74.32;25.58;;;5.10;99.90;;;;;;5016015;28;20033;-75
2023/12/12 08:19:20;;;;;;;81.97;25.70;;;5.10;99.90;;;;;;5015887;28;20037;-75
2023/12/12 08:21:46;;;;;;;72.85;24.70;;;5.10;99.90;;;;;;4996611;28;20100;-75
2023/12/12 08:24:12;;;;;;;74.30;24.73;;;5.00;99.90;;;;;;5008659;28;20080;-75
2023/12/12 08:26:46;;;;;;;74.20;24.42;;;4.90;99.90;;;;;;5006510;28;20666;-75
2023/12/12 08:29:14;;;;;;;93.05;24.30;;;4.80;99.90;;;;;;5032312;28;20162;-75
2023/12/12 08:31:40;;;;;;;85.90;26.20;;;4.80;99.90;;;;;;5015571;28;20041;-76
2023/12/12 08:34:06;;;;;;;54.95;21.23;;;4.70;99.90;;;;;;5031853;28;20099;-76
2023/12/12 08:36:32;;;;;;;63.75;20.88;;;4.60;99.90;;;;;;5015704;28;20073;-76
2023/12/12 08:38:59;;;;;;;66.45;22.05;;;4.60;99.90;;;;;;5015713;28;20091;-75
2023/12/12 08:41:30;;;;;;;70.97;22.48;;;4.50;99.90;;;;;;5032027;28;20045;-77
2023/12/12 08:44:00;;;;;;;71.60;23.80;;;4.80;99.90;;;;;;5030285;28;20522;-75
2023/12/12 08:46:26;;;;;;;69.40;22.75;;;4.50;99.90;;;;;;5031816;28;20060;-75
2023/12/12 08:48:56;;;;;;;62.70;22.65;;;4.60;99.90;;;;;;5031741;28;20138;-77
2023/12/12 08:51:23;;;;;;;69.88;26.23;;;4.50;99.90;;;;;;5010362;28;20045;-77
2023/12/12 08:53:49;;;;;;;71.82;26.33;;;4.60;99.90;;;;;;5031309;28;20376;-76
2023/12/12 08:56:16;;;;;;;77.78;27.88;;;4.60;99.90;;;;;;5029746;28;20038;-75
2023/12/12 08:58:46;;;;;;;82.88;27.15;;;4.70;99.90;;;;;;5026775;28;20125;-75
2023/12/12 09:01:14;;;;;;;74.93;26.58;;;5.10;99.90;;;;;;5009254;28;20471;-75
2023/12/12 09:03:40;;;;;;;86.38;28.67;;;4.90;99.90;;;;;;5031621;28;20044;-75
2023/12/12 09:06:07;;;;;;;441.98;71.75;;;5.00;99.90;;;;;;5031250;28;20041;-75
2023/12/12 09:08:32;;;;;;;182.10;36.67;;;5.30;99.90;;;;;;5015236;28;20049;-75
2023/12/12 09:10:59;;;;;;;253.18;49.67;;;5.40;99.90;;;;;;4998576;28;20041;-75
2023/12/12 09:13:28;;;;;;;79.18;27.92;;;5.40;99.90;;;;;;5015152;28;20049;-75
2023/12/12 09:15:54;;;;;;;81.18;27.55;;;5.90;99.90;;;;;;5014607;28;20051;-75
2023/12/12 09:18:20;;;;;;;80.53;26.30;;;5.50;99.90;;;;;;5031306;28;20041;-75
2023/12/12 09:20:47;;;;;;;85.60;26.80;;;5.40;99.90;;;;;;5014691;28;20045;-76
2023/12/12 09:23:12;;;;;;;127.70;29.40;;;5.30;99.90;;;;;;5014504;28;20160;-75
2023/12/12 09:25:38;;;;;;;144.27;33.83;;;5.20;99.90;;;;;;4998983;28;20085;-75
2023/12/12 09:28:04;;;;;;;92.40;26.42;;;5.10;99.90;;;;;;5014592;28;20041;-75
2023/12/12 09:30:29;;;;;;;93.82;27.35;;;5.10;99.90;;;;;;5030774;28;20034;-76
2023/12/12 09:32:55;;;;;;;100.22;26.75;;;5.00;99.90;;;;;;5014585;28;20103;-75
2023/12/12 09:35:21;;;;;;;121.13;32.58;;;5.00;99.90;;;;;;5014288;28;20073;-75
2023/12/12 09:37:46;;;;;;;225.57;41.47;;;5.00;99.90;;;;;;4998619;28;20045;-75
2023/12/12 09:40:12;;;;;;;351.63;54.63;;;5.10;99.90;;;;;;5013067;28;20427;-75
2023/12/12 09:42:40;;;;;;;395.92;60.28;;;5.10;99.90;;;;;;5032472;28;20065;-75
2023/12/12 09:45:14;;;;;;;416.45;57.92;;;5.10;99.90;;;;;;5006216;28;20046;-75
2023/12/12 09:47:42;;;;;;;332.95;46.53;;;5.10;99.90;;;;;;5024309;28;20044;-75
2023/12/12 09:50:10;;;;;;;271.58;42.33;;;5.10;99.90;;;;;;5013819;28;20509;-75
2023/12/12 09:52:36;;;;;;;365.98;49.00;;;5.00;99.90;;;;;;5030690;28;20038;-75
2023/12/12 09:55:03;;;;;;;325.23;46.03;;;4.90;99.90;;;;;;5013855;28;20058;-75
2023/12/12 09:57:30;;;;;;;418.13;53.97;;;4.90;99.90;;;;;;5013811;28;20489;-75
2023/12/12 09:59:58;;;;;;;362.20;46.72;;;4.90;99.90;;;;;;5030663;28;20045;-75
2023/12/12 10:02:27;;;;;;;407.08;49.67;;;4.90;99.90;;;;;;4997742;28;20037;-75
2023/12/12 10:04:54;;;;;;;290.08;46.90;;;4.90;99.90;;;;;;5003778;28;20033;-75
2023/12/12 10:07:24;;;;;;;244.18;38.88;;;4.90;99.90;;;;;;5025338;28;20124;-75
2023/12/12 10:09:50;;;;;;;210.27;35.38;;;4.90;99.90;;;;;;4998302;28;20048;-75
2023/12/12 10:12:16;;;;;;;187.18;30.27;;;4.80;99.90;;;;;;5028852;28;20045;-75
2023/12/12 10:14:44;;;;;;;192.35;34.40;;;5.10;99.90;;;;;;5009915;28;20499;-75
2023/12/12 10:17:11;;;;;;;152.70;30.48;;;5.10;99.90;;;;;;5013307;28;20036;-76
2023/12/12 10:19:41;;;;;;;151.25;29.38;;;4.70;99.90;;;;;;5030198;28;20532;-76
2023/12/12 10:22:08;;;;;;;196.00;35.60;;;4.80;99.90;;;;;;4998008;28;20401;-75
2023/12/12 10:24:35;;;;;;;199.43;41.92;;;4.80;99.90;;;;;;5010777;28;20037;-75
2023/12/12 10:27:02;;;;;;;270.20;42.78;;;4.70;99.90;;;;;;5013389;28;20399;-75
2023/12/12 10:29:30;;;;;;;266.30;43.88;;;4.70;99.90;;;;;;5029847;28;20053;-75
2023/12/12 10:32:04;;;;;;;279.90;44.22;;;5.10;99.90;;;;;;5128716;27;20390;-64
2023/12/12 10:34:30;;;;;;;216.45;40.95;;;4.80;99.90;;;;;;5105960;28;20040;-64
2023/12/12 10:37:02;;;;;;;182.23;33.70;;;4.80;99.90;;;;;;5124675;28;20038;-64
2023/12/12 10:39:32;;;;;;;183.18;35.92;;;4.80;99.90;;;;;;5123869;28;20415;-64
2023/12/12 10:41:57;;;;;;;185.02;34.63;;;4.80;99.90;;;;;;5123007;28;20094;-64
2023/12/12 10:44:33;;;;;;;171.02;31.75;;;4.80;99.90;;;;;;5125799;27;20528;-64
2023/12/12 10:47:03;;;;;;;94.35;26.50;;;4.90;99.90;;;;;;5121972;28;20042;-64
2023/12/12 10:49:33;;;;;;;83.35;26.55;;;4.80;99.90;;;;;;5123915;28;20120;-64
2023/12/12 10:52:03;;;;;;;176.07;38.67;;;4.90;99.90;;;;;;5120875;28;20039;-64
2023/12/12 10:54:33;;;;;;;139.93;28.17;;;4.90;99.90;;;;;;5106983;28;20097;-64
2023/12/12 10:57:01;;;;;;;159.88;32.85;;;4.90;99.90;;;;;;5120516;28;20043;-66
2023/12/12 10:59:29;;;;;;;181.18;35.53;;;5.00;99.90;;;;;;5107634;28;20122;-66
2023/12/12 11:01:56;;;;;;;160.55;32.85;;;5.00;99.90;;;;;;5101265;28;20046;-66
2023/12/12 11:04:24;;;;;;;161.38;31.27;;;5.00;99.90;;;;;;5128043;27;20050;-66
2023/12/12 11:06:51;;;;;;;139.35;30.23;;;5.10;99.90;;;;;;5113252;28;20041;-66
2023/12/12 11:09:20;;;;;;;209.43;37.00;;;5.10;99.90;;;;;;5128008;27;20082;-66
2023/12/12 11:11:49;;;;;;;131.55;30.00;;;5.10;99.90;;;;;;5113912;27;20034;-66
2023/12/12 11:14:17;;;;;;;133.18;30.10;;;5.20;99.90;;;;;;5126450;28;20047;-66
2023/12/12 11:16:43;;;;;;;161.48;32.97;;;5.40;99.90;;;;;;5112339;28;20039;-66
2023/12/12 11:19:16;;;;;;;128.43;31.95;;;5.30;99.90;;;;;;5126961;28;20056;-66
2023/12/12 11:21:49;;;;;;;138.70;30.38;;;5.40;99.90;;;;;;5126442;28;20042;-66
2023/12/12 11:24:19;;;;;;;181.75;36.72;;;5.50;99.90;;;;;;5128631;27;20043;-66
2023/12/12 11:26:52;;;;;;;160.32;35.05;;;5.50;99.90;;;;;;5124800;28;20126;-66
2023/12/12 11:29:23;;;;;;;129.15;32.83;;;5.50;99.90;;;;;;5107949;28;20038;-66
2023/12/12 11:32:03;;;;;;;125.87;32.67;;;5.60;99.90;;;;;;5106299;28;20404;-66
2023/12/12 11:34:41;;;;;;;146.48;30.08;;;5.60;99.90;;;;;;5101071;28;20499;-65
2023/12/12 11:37:08;;;;;;;165.30;34.53;;;5.60;99.90;;;;;;5109421;28;20046;-66
2023/12/12 11:39:49;;;;;;;160.45;32.22;;;5.60;99.90;;;;;;5105825;28;20040;-66
2023/12/12 11:42:22;;;;;;;135.65;33.22;;;5.70;99.90;;;;;;5099669;28;20097;-66
2023/12/12 11:44:52;;;;;;;;;;;5.60;99.90;;;;;;5074081;28;20491;-66
2023/12/12 11:47:23;;;;;;;119.15;32.08;;;5.70;99.90;;;;;;5108238;28;19950;-66
2023/12/12 11:49:50;;;;;;;126.70;31.20;;;5.70;99.90;;;;;;5089539;28;20046;-66
2023/12/12 11:52:52;;;;;;;177.75;39.47;;;5.90;99.90;;;;;;5055060;28;20553;-66
2023/12/12 11:55:20;;;;;;;178.35;36.03;;;5.70;99.90;;;;;;5030118;28;20043;-66
2023/12/12 11:57:46;;;;;;;166.18;37.15;;;5.70;99.90;;;;;;5079388;28;20084;-66
2023/12/12 12:00:17;;;;;;;189.98;40.33;;;5.70;99.90;;;;;;5090627;28;20040;-66
2023/12/12 12:02:43;;;;;;;211.45;42.90;;;5.70;99.90;;;;;;5089342;28;20501;-66
2023/12/12 12:05:09;;;;;;;251.32;44.17;;;5.80;99.90;;;;;;5093135;28;20043;-66
2023/12/12 12:07:38;;;;;;;210.02;41.72;;;5.80;99.90;;;;;;5092090;28;20036;-66
2023/12/12 12:10:05;;;;;;;190.13;38.63;;;5.80;99.90;;;;;;5071225;28;20050;-66
2023/12/12 12:12:31;;;;;;;217.07;46.42;;;5.90;99.90;;;;;;5085763;28;20035;-66
2023/12/12 12:15:09;;;;;;;243.43;49.35;;;5.90;99.90;;;;;;5101428;27;20032;-66
2023/12/12 12:17:36;;;;;;;253.60;50.42;;;5.90;99.90;;;;;;5067498;28;20042;-66
2023/12/12 12:20:05;;;;;;;299.58;54.42;;;6.00;99.90;;;;;;5076705;28;20071;-66
2023/12/12 12:22:31;;;;;;;217.18;45.47;;;6.00;99.90;;;;;;5088344;28;20409;-66
2023/12/12 12:24:56;;;;;;;200.80;47.47;;;6.10;99.90;;;;;;5092932;28;20048;-66
2023/12/12 12:27:22;;;;;;;212.32;45.97;;;6.10;99.90;;;;;;5091729;28;20097;-66
2023/12/12 12:30:08;;;;;;;199.30;46.90;;;6.20;99.90;;;;;;5071632;28;20036;-66
2023/12/12 12:32:34;;;;;;;159.05;37.35;;;6.20;99.90;;;;;;5072175;28;20518;-66
2023/12/12 12:35:09;;;;;;;189.02;41.95;;;6.20;99.90;;;;;;5091203;28;20039;-66
2023/12/12 12:37:36;;;;;;;149.80;38.78;;;6.30;99.90;;;;;;5092788;28;20086;-66